Terminal Aerodrome Forecast
Issued by NWS

Home | Current Version | Previous Version | Text Only | Print | Product List | Glossary On
Versions: 1 2 3 4 5 6 7 8 9 10 11 12 13 14 15 16
000
FTUS46 KMTR 211400 AAB
TAFMRY
TAF AMD
KMRY 211453Z 2115/2212 VRB03KT 1/2SM FG OVC002
      TEMPO 2115/2116 P6SM NSW SCT004 SCT200
     FM211600 28003KT P6SM SCT010
     FM211800 28008KT P6SM SKC
     FM220300 24005KT P6SM BKN010=

USA.gov is the U.S. government's official web portal to all federal, state and local government web resources and services.